Time;durP1;ratioP1;P1;durP2;ratioP2;P2;SDS_P1;SDS_P2;PMS_P1;PMS_P2;Temp;Humidity;BMP_temperature;BMP_pressure;BME280_temperature;BME280_humidity;BME280_pressure;Samples;Min_cycle;Max_cycle;Signal;HPM_P1;HPM_P2
2022/01/28 00:01:44;;;;;;;7.53;1.48;;;;;;;3.38;85.58;100265.00;5052060;28;20029;-89
2022/01/28 00:04:16;;;;;;;6.55;1.42;;;;;;;3.43;84.46;100286.38;5039676;28;20053;-87
2022/01/28 00:06:44;;;;;;;9.18;1.70;;;;;;;3.46;83.69;100286.28;5038969;28;20513;-89
2022/01/28 00:09:17;;;;;;;5.07;1.48;;;;;;;3.48;82.78;100294.81;5052173;28;20108;-88
2022/01/28 00:11:47;;;;;;;8.00;2.78;;;;;;;3.51;82.14;100294.72;5050485;28;20033;-89
2022/01/28 00:14:38;;;;;;;7.55;1.38;;;;;;;3.55;81.21;100291.09;5041625;28;20483;-89
2022/01/28 00:39:29;;;;;;;5.85;1.30;;;;;;;3.59;77.79;100328.13;5040916;28;19943;-90
2022/01/28 00:42:09;;;;;;;4.78;1.08;;;;;;;3.64;77.74;100327.06;5055961;28;20037;-88
2022/01/28 00:44:35;;;;;;;6.13;1.52;;;;;;;3.76;76.81;100314.53;5042995;28;20037;-89
2022/01/28 00:47:01;;;;;;;9.13;1.20;;;;;;;3.64;78.02;100321.03;5039822;28;20370;-90
2022/01/28 00:49:36;;;;;;;9.23;1.45;;;;;;;3.48;79.10;100341.47;5051720;28;20037;-90
2022/01/28 00:52:11;;;;;;;9.63;1.17;;;;;;;3.38;80.12;100338.41;5042375;28;20021;-90
2022/01/28 00:54:48;;;;;;;6.57;0.95;;;;;;;3.43;80.12;100353.78;5040131;28;20039;-91
2022/01/28 00:57:19;;;;;;;7.57;1.35;;;;;;;3.39;81.31;100353.03;5055583;28;20041;-90
2022/01/28 00:59:51;;;;;;;2.40;0.98;;;;;;;3.36;81.80;100354.91;5056095;28;20468;-91
2022/01/28 01:02:17;;;;;;;7.70;1.73;;;;;;;3.37;81.13;100359.16;5057727;28;20040;-91
2022/01/28 01:11:23;;;;;;;7.18;1.35;;;;;;;3.40;80.85;100359.06;4994636;28;20049;-90
2022/01/28 01:13:59;;;;;;;10.38;1.75;;;;;;;3.51;79.40;100377.66;4984042;28;20049;-90
2022/01/28 01:20:15;;;;;;;7.82;1.65;;;;;;;3.78;76.99;100385.31;4977588;28;20054;-89
2022/01/28 01:23:05;;;;;;;8.43;1.25;;;;;;;3.79;77.23;100385.28;4978284;28;20057;-90
2022/01/28 01:25:45;;;;;;;2.95;1.00;;;;;;;3.76;77.76;100390.59;4965442;28;20439;-89
2022/01/28 01:28:30;;;;;;;4.68;1.23;;;;;;;3.77;77.54;100406.97;4992214;28;20030;-90
2022/01/28 01:31:01;;;;;;;14.73;1.40;;;;;;;3.81;78.09;100419.78;4974756;28;20117;-91
2022/01/28 01:33:41;;;;;;;7.38;1.35;;;;;;;3.76;78.73;100421.69;4976391;28;20387;-89
2022/01/28 01:36:18;;;;;;;7.50;1.50;;;;;;;3.72;79.40;100420.13;4991619;28;20050;-91
2022/01/28 01:38:55;;;;;;;4.38;1.40;;;;;;;3.76;78.65;100439.84;5028067;28;20029;-89
2022/01/28 01:53:30;;;;;;;6.47;1.38;;;;;;;3.69;79.80;100409.03;5047768;28;20075;-89
2022/01/28 01:56:20;;;;;;;9.07;1.55;;;;;;;3.70;79.60;100415.88;5014785;28;20040;-90
2022/01/28 01:58:57;;;;;;;7.40;2.08;;;;;;;3.73;80.07;100436.53;5055135;28;20178;-89
2022/01/28 02:01:39;;;;;;;;;;;;;;;;;;;;;
2022/01/28 02:04:18;;;;;;;7.93;1.02;;;;;;;3.74;80.03;100433.03;5062839;28;20077;-89
2022/01/28 02:07:02;;;;;;;8.05;1.42;;;;;;;3.73;80.40;100452.09;5072278;28;20040;-90
2022/01/28 02:09:48;;;;;;;9.45;1.60;;;;;;;3.72;80.96;100446.06;5050992;28;20025;-89
2022/01/28 02:12:22;;;;;;;6.60;1.90;;;;;;;3.76;79.29;100464.94;5075139;28;20045;-89
2022/01/28 02:14:51;;;;;;;9.52;2.03;;;;;;;3.77;79.61;100457.09;5065962;28;20071;-89
2022/01/28 02:17:24;;;;;;;7.60;1.40;;;;;;;3.80;78.79;100482.09;5075382;28;20025;-90
2022/01/28 02:20:07;;;;;;;6.00;1.25;;;;;;;3.87;78.32;100452.44;5088751;28;20092;-90
2022/01/28 02:22:52;;;;;;;6.20;1.30;;;;;;;3.84;79.14;100450.78;5067522;28;20061;-89
2022/01/28 02:25:57;;;;;;;;;;;;;;;;;;;;;
2022/01/28 02:28:35;;;;;;;14.73;1.90;;;;;;;3.86;78.01;100455.94;5050990;28;20100;-92
2022/01/28 02:34:33;;;;;;;12.80;1.52;;;;;;;3.99;75.78;100454.56;4968021;28;20034;-91
2022/01/28 02:37:08;;;;;;;6.93;1.65;;;;;;;4.01;76.43;100449.34;4965635;28;20042;-90
2022/01/28 02:40:08;;;;;;;;;;;;;;;;;;;;;
2022/01/28 02:43:14;;;;;;;;;;;;;;;;;;;;;
2022/01/28 02:45:47;;;;;;;10.50;1.50;;;;;;;3.75;79.50;100463.25;4973629;28;20591;-90
2022/01/28 02:48:28;;;;;;;8.05;1.85;;;;;;;3.74;78.99;100466.75;4947823;28;20046;-90
2022/01/28 02:51:14;;;;;;;8.45;1.60;;;;;;;3.73;77.93;100457.28;4962453;28;20039;-88
2022/01/28 02:53:51;;;;;;;10.63;1.73;;;;;;;3.70;78.44;100447.00;4972457;28;20031;-88
2022/01/28 02:58:48;;;;;;;7.18;1.45;;;;;;;3.66;78.77;100454.03;4963170;28;20102;-88
2022/01/28 03:01:21;;;;;;;11.40;2.03;;;;;;;3.69;77.90;100448.75;4955496;28;20093;-87
2022/01/28 03:03:49;;;;;;;10.82;1.60;;;;;;;3.67;77.53;100460.94;4972933;28;20451;-88
2022/01/28 03:06:19;;;;;;;12.32;2.20;;;;;;;3.67;77.59;100453.16;4982022;28;20169;-87
2022/01/28 03:08:58;;;;;;;8.45;1.45;;;;;;;3.66;77.56;100451.44;4977907;28;20142;-87
2022/01/28 03:20:58;;;;;;;14.48;1.77;;;;;;;3.69;77.01;100471.25;5038833;28;20114;-89
2022/01/28 03:23:38;;;;;;;5.65;1.40;;;;;;;3.64;77.56;100479.19;5045776;28;20037;-90
2022/01/28 03:29:40;;;;;;;11.57;1.33;;;;;;;3.63;78.35;100490.44;5031397;28;20114;-91
2022/01/28 03:32:40;;;;;;;8.80;1.65;;;;;;;3.65;78.68;100483.47;5033966;28;20095;-91
2022/01/28 03:35:45;;;;;;;10.13;2.28;;;;;;;3.64;78.99;100487.81;5044615;28;20546;-90
2022/01/28 03:38:24;;;;;;;12.13;2.25;;;;;;;3.63;78.72;100495.63;5021458;28;20401;-90
2022/01/28 03:41:23;;;;;;;10.05;1.52;;;;;;;3.64;78.76;100495.59;5055422;28;20059;-91
2022/01/28 03:44:02;;;;;;;13.75;2.25;;;;;;;3.63;78.59;100499.09;5043872;28;20081;-91
2022/01/28 03:46:37;;;;;;;;;;;;;;;3.66;77.91;100510.25;5046054;28;20030;-91
2022/01/28 03:49:23;;;;;;;6.93;1.35;;;;;;;3.68;78.17;100516.25;5063947;28;19913;-90
2022/01/28 03:51:52;;;;;;;10.23;1.55;;;;;;;3.63;78.32;100503.41;5057515;28;20024;-89
2022/01/28 03:54:33;;;;;;;8.80;1.55;;;;;;;3.62;78.11;100499.13;5038690;28;20048;-89
2022/01/28 03:57:14;;;;;;;;;;;;;;;;;;;;;
2022/01/28 03:59:52;;;;;;;11.20;1.92;;;;;;;3.57;78.48;100517.44;5057286;28;20064;-88
2022/01/28 04:02:42;;;;;;;16.65;1.85;;;;;;;3.57;77.73;100525.22;5035333;28;20037;-89
2022/01/28 04:06:17;;;;;;;11.35;1.55;;;;;;;3.56;78.57;100513.19;5029427;28;20037;-91
2022/01/28 04:15:22;;;;;;;11.40;2.05;;;;;;;3.63;76.68;100532.81;5018262;28;20077;-91
2022/01/28 04:21:28;;;;;;;;;;;;;;;;;;;;;
2022/01/28 04:23:59;;;;;;;5.28;1.65;;;;;;;3.54;77.18;100556.44;5040185;28;20116;-90
2022/01/28 04:26:35;;;;;;;16.23;2.00;;;;;;;3.57;77.32;100558.94;5017165;28;20037;-91
2022/01/28 04:29:42;;;;;;;11.55;1.90;;;;;;;3.56;77.13;100575.41;5019305;28;20172;-91
2022/01/28 04:32:24;;;;;;;10.50;1.75;;;;;;;3.55;76.43;100568.50;5035857;28;20136;-89
2022/01/28 04:44:26;;;;;;;;;;;;;;;;;;;;;
2022/01/28 05:06:54;;;;;;;10.95;2.17;;;;;;;3.60;76.90;100621.06;5009972;28;20128;-91
2022/01/28 05:27:08;;;;;;;12.98;2.50;;;;;;;4.18;72.19;100675.31;5056816;28;20044;-89
2022/01/28 05:29:41;;;;;;;12.43;2.63;;;;;;;4.15;72.97;100678.00;5076974;28;20047;-90
2022/01/28 05:32:31;;;;;;;12.05;2.05;;;;;;;4.14;72.62;100658.16;5064775;28;20037;-91
2022/01/28 05:35:05;;;;;;;19.35;3.67;;;;;;;4.11;73.41;100656.50;5066920;28;20434;-90
2022/01/28 05:37:33;;;;;;;13.38;2.78;;;;;;;4.08;73.76;100695.56;5058110;28;20037;-89
2022/01/28 05:40:07;;;;;;;24.63;2.80;;;;;;;4.04;74.49;100682.72;5058068;28;20171;-89
2022/01/28 05:42:33;;;;;;;20.20;3.00;;;;;;;3.98;75.40;100676.00;5056973;28;20032;-90
2022/01/28 05:44:59;;;;;;;14.55;2.78;;;;;;;3.94;75.72;100720.28;5055524;28;20033;-88
2022/01/28 05:47:25;;;;;;;13.00;2.20;;;;;;;3.88;76.10;100670.25;5062022;28;20064;-87
2022/01/28 05:49:51;;;;;;;16.92;3.10;;;;;;;3.82;76.83;100679.97;5049796;28;20033;-86
2022/01/28 05:52:28;;;;;;;20.50;2.08;;;;;;;3.80;76.91;100712.94;5048137;28;20045;-90
2022/01/28 05:54:56;;;;;;;15.13;2.08;;;;;;;3.82;75.99;100711.09;5060593;28;20381;-90
2022/01/28 05:57:31;;;;;;;22.17;3.15;;;;;;;3.82;76.56;100711.97;5065756;28;20409;-89
2022/01/28 05:59:59;;;;;;;22.40;3.28;;;;;;;3.83;76.81;100720.63;5047989;28;20060;-89
2022/01/28 06:02:29;;;;;;;13.30;2.38;;;;;;;3.79;77.13;100706.03;5047247;28;20090;-90
2022/01/28 06:04:55;;;;;;;17.25;2.40;;;;;;;3.74;78.24;100726.06;5057237;28;20037;-88
2022/01/28 06:07:43;;;;;;;15.98;2.35;;;;;;;3.67;78.46;100724.56;5049842;28;20047;-87
2022/01/28 06:10:11;;;;;;;21.15;2.95;;;;;;;3.61;78.72;100712.66;5054737;28;20076;-91
2022/01/28 06:12:51;;;;;;;11.55;2.00;;;;;;;3.51;79.38;100734.56;5052888;28;20025;-89
2022/01/28 06:15:17;;;;;;;13.88;2.17;;;;;;;3.40;79.68;100750.44;5026696;28;20037;-89
2022/01/28 06:17:43;;;;;;;15.93;2.17;;;;;;;3.32;80.54;100735.13;5038520;28;20280;-91
2022/01/28 06:20:19;;;;;;;15.75;2.35;;;;;;;3.26;81.02;100752.59;5040733;28;20033;-89
2022/01/28 06:22:54;;;;;;;16.83;2.13;;;;;;;3.23;81.33;100742.34;5034388;28;20028;-89
2022/01/28 06:25:19;;;;;;;15.00;2.28;;;;;;;3.14;81.75;100744.28;5056306;28;20056;-89
2022/01/28 06:27:49;;;;;;;25.80;3.33;;;;;;;3.18;81.45;100759.75;5058225;28;20025;-90
2022/01/28 06:30:30;;;;;;;20.48;3.22;;;;;;;3.17;81.75;100756.31;5055590;28;20067;-90
2022/01/28 06:33:01;;;;;;;14.35;2.50;;;;;;;3.24;80.96;100764.78;5052771;28;20060;-87
2022/01/28 06:35:28;;;;;;;22.17;3.40;;;;;;;3.30;80.75;100772.34;5053842;28;20037;-86
2022/01/28 06:37:54;;;;;;;12.07;2.25;;;;;;;3.35;80.98;100771.34;5056287;28;20051;-88
2022/01/28 06:40:25;;;;;;;14.70;2.55;;;;;;;3.36;80.68;100785.13;5055852;28;20033;-87
2022/01/28 06:42:51;;;;;;;22.42;3.20;;;;;;;3.39;80.02;100783.31;5053312;28;20441;-89
2022/01/28 06:45:24;;;;;;;11.25;2.60;;;;;;;3.43;80.13;100786.66;5057703;28;20044;-88
2022/01/28 06:47:53;;;;;;;15.85;2.28;;;;;;;3.48;79.74;100782.16;5063463;28;20512;-88
2022/01/28 06:50:24;;;;;;;23.55;3.30;;;;;;;3.53;78.91;100816.59;5054480;28;20057;-88
2022/01/28 06:53:07;;;;;;;13.57;2.67;;;;;;;3.67;77.67;100810.16;5052879;28;20346;-88
2022/01/28 06:55:36;;;;;;;21.23;3.25;;;;;;;3.66;77.52;100803.28;5056384;28;20040;-90
2022/01/28 06:58:08;;;;;;;20.00;2.80;;;;;;;3.69;77.24;100842.09;5064695;28;20392;-90
2022/01/28 07:00:44;;;;;;;19.83;3.50;;;;;;;3.74;76.85;100812.50;5057662;28;20355;-89
2022/01/28 07:03:14;;;;;;;23.73;3.60;;;;;;;3.76;76.67;100843.59;5053049;28;20384;-88
2022/01/28 07:05:40;;;;;;;23.33;3.28;;;;;;;3.77;76.10;100840.94;5054296;28;20496;-87
2022/01/28 07:08:09;;;;;;;12.98;2.65;;;;;;;3.82;75.65;100833.91;5041687;28;20105;-89
2022/01/28 07:10:35;;;;;;;23.35;2.58;;;;;;;3.84;75.41;100845.06;5053596;28;20167;-91
2022/01/28 07:13:03;;;;;;;27.23;3.00;;;;;;;3.84;75.78;100839.03;5049685;28;20469;-89
2022/01/28 07:15:29;;;;;;;16.70;2.90;;;;;;;3.83;75.21;100852.91;5053788;28;20025;-88
2022/01/28 07:18:03;;;;;;;26.42;3.45;;;;;;;3.88;73.89;100851.84;5043138;28;20040;-89
2022/01/28 07:20:37;;;;;;;17.90;2.92;;;;;;;3.87;73.63;100865.72;5052769;28;20040;-88
2022/01/28 07:23:19;;;;;;;25.17;3.33;;;;;;;3.92;73.78;100877.72;5054649;28;20116;-90
2022/01/28 07:25:53;;;;;;;12.55;2.08;;;;;;;3.93;73.59;100850.84;5051957;28;20029;-87
2022/01/28 07:28:22;;;;;;;19.08;2.60;;;;;;;3.90;73.81;100857.00;5045965;28;20108;-87
2022/01/28 07:30:55;;;;;;;17.60;3.42;;;;;;;3.91;73.42;100882.06;5057826;28;20029;-88
2022/01/28 07:33:23;;;;;;;16.02;2.50;;;;;;;3.92;73.31;100886.34;5033297;28;20056;-87
2022/01/28 07:35:54;;;;;;;20.47;3.73;;;;;;;3.99;72.47;100861.06;5054527;28;20355;-88
2022/01/28 07:38:24;;;;;;;14.32;2.50;;;;;;;3.95;72.83;100906.16;5049142;28;20048;-89
2022/01/28 07:40:56;;;;;;;15.05;2.53;;;;;;;3.92;73.06;100868.19;5047080;28;20059;-88
2022/01/28 07:43:30;;;;;;;13.88;2.75;;;;;;;3.86;73.84;100868.38;5041512;28;20388;-89
2022/01/28 07:46:21;;;;;;;23.77;3.85;;;;;;;3.87;73.54;100870.06;5052043;28;20025;-89
2022/01/28 07:49:04;;;;;;;18.58;2.78;;;;;;;3.90;73.41;100889.91;5059535;28;20435;-89
2022/01/28 07:51:29;;;;;;;20.55;2.78;;;;;;;3.95;73.72;100895.78;5043061;28;20061;-87
2022/01/28 07:53:55;;;;;;;24.05;3.80;;;;;;;3.91;73.63;100889.84;5055219;28;20056;-87
2022/01/28 07:56:30;;;;;;;15.98;3.22;;;;;;;3.94;73.90;100899.28;5038561;28;20435;-86
2022/01/28 07:59:05;;;;;;;18.45;3.03;;;;;;;3.97;74.24;100902.63;5051969;28;20120;-87
2022/01/28 08:01:42;;;;;;;20.80;3.00;;;;;;;3.99;74.61;100906.03;5057085;28;20032;-87
2022/01/28 08:04:14;;;;;;;20.50;3.50;;;;;;;3.99;74.69;100902.56;5047287;28;20158;-89
2022/01/28 08:06:40;;;;;;;17.08;2.08;;;;;;;4.02;74.78;100925.84;5049564;28;20028;-89
2022/01/28 08:09:09;;;;;;;20.17;3.47;;;;;;;3.97;75.02;100920.81;5054052;28;20036;-88
2022/01/28 08:12:00;;;;;;;20.42;3.30;;;;;;;3.89;75.66;100914.97;5031644;28;20104;-88
2022/01/28 08:14:34;;;;;;;20.88;4.30;;;;;;;3.81;76.16;100904.81;5058070;28;20037;-89
2022/01/28 08:16:59;;;;;;;22.58;3.95;;;;;;;3.78;76.31;100924.78;5050644;28;20029;-88
2022/01/28 08:19:51;;;;;;;21.67;3.05;;;;;;;3.76;76.40;100926.59;5054648;28;20040;-89
2022/01/28 08:22:35;;;;;;;19.63;4.25;;;;;;;3.73;77.07;100927.53;5037691;28;20041;-88
2022/01/28 08:25:32;;;;;;;11.40;2.50;;;;;;;3.71;77.54;100944.91;5033915;28;20055;-90
2022/01/28 08:31:22;;;;;;;18.40;2.30;;;;;;;3.69;77.50;100930.25;5053045;28;20029;-89
2022/01/28 08:34:09;;;;;;;12.85;2.20;;;;;;;3.71;77.84;100946.59;5048070;28;20024;-91
2022/01/28 08:36:41;;;;;;;17.52;4.25;;;;;;;3.72;77.74;100925.84;5051026;28;20059;-91
2022/01/28 08:39:35;;;;;;;17.10;3.20;;;;;;;3.75;77.80;100950.84;5011205;28;20037;-91
2022/01/28 08:42:16;;;;;;;17.85;3.03;;;;;;;3.75;78.07;100976.78;5052626;28;20049;-90
2022/01/28 08:44:42;;;;;;;15.48;2.72;;;;;;;3.78;77.93;100966.31;5053126;28;20037;-89
2022/01/28 08:47:18;;;;;;;20.08;3.70;;;;;;;3.90;77.94;100980.69;5045067;28;20029;-90
2022/01/28 08:49:49;;;;;;;25.70;3.72;;;;;;;3.96;77.23;100988.28;5045060;28;20083;-89
2022/01/28 08:52:14;;;;;;;18.83;3.10;;;;;;;3.99;77.15;100972.63;5045339;28;20047;-91
2022/01/28 08:54:47;;;;;;;21.35;4.43;;;;;;;3.98;77.07;100996.88;5057428;28;20025;-90
2022/01/28 08:57:18;;;;;;;13.52;2.60;;;;;;;3.96;77.10;100986.53;5042068;28;20072;-90
2022/01/28 08:59:46;;;;;;;25.92;4.35;;;;;;;3.97;76.66;100975.28;5056675;28;20278;-91
2022/01/28 09:02:40;;;;;;;26.77;4.07;;;;;;;4.00;76.64;101005.47;5041164;28;20071;-90
2022/01/28 09:05:23;;;;;;;20.08;2.45;;;;;;;3.93;76.66;100986.66;5060511;28;20037;-90
2022/01/28 09:07:52;;;;;;;21.80;3.47;;;;;;;3.87;76.12;101028.31;5055550;28;20167;-87
2022/01/28 09:10:30;;;;;;;16.30;3.65;;;;;;;3.87;76.93;100997.19;5049335;28;20029;-88
2022/01/28 09:16:06;;;;;;;20.50;3.65;;;;;;;4.03;76.65;101011.41;5039575;28;20037;-91
2022/01/28 09:18:50;;;;;;;26.20;3.95;;;;;;;4.09;76.50;101003.47;5049973;28;20040;-90
2022/01/28 09:21:21;;;;;;;23.35;3.65;;;;;;;4.15;76.13;101022.34;5063977;28;20446;-90
2022/01/28 09:23:51;;;;;;;20.05;3.58;;;;;;;4.18;75.68;101020.50;5054275;28;20044;-91
2022/01/28 09:26:34;;;;;;;23.98;3.35;;;;;;;4.20;76.22;101004.91;5033538;28;20124;-91
2022/01/28 09:39:32;;;;;;;;;;;;;;;;;;;;;
2022/01/28 09:42:11;;;;;;;;;;;;;;;2.87;89.86;101058.47;5058693;28;20048;-89
2022/01/28 09:44:42;;;;;;;20.48;3.80;;;;;;;2.80;91.68;101052.56;5051378;28;20015;-88
2022/01/28 09:47:17;;;;;;;19.70;3.72;;;;;;;2.86;92.18;101069.72;5062178;28;20068;-89
2022/01/28 09:49:51;;;;;;;19.35;3.55;;;;;;;2.89;92.30;101087.75;5058302;28;20094;-90
2022/01/28 09:52:22;;;;;;;23.60;4.53;;;;;;;2.77;90.89;101145.00;5058583;28;20041;-89
2022/01/28 09:54:51;;;;;;;19.13;3.33;;;;;;;2.75;92.04;101105.38;5048004;28;20044;-88
2022/01/28 09:57:36;;;;;;;23.50;2.97;;;;;;;2.78;91.95;101090.63;5069354;28;20041;-89
2022/01/28 10:00:27;;;;;;;27.08;4.40;;;;;;;2.60;91.42;101143.63;5067555;28;20104;-89
2022/01/28 10:03:08;;;;;;;14.45;3.75;;;;;;;2.44;91.59;101113.75;5044736;28;20037;-92
2022/01/28 10:06:06;;;;;;;35.05;3.47;;;;;;;2.31;88.40;101120.06;5048368;28;20052;-90
2022/01/28 10:08:40;;;;;;;19.98;2.97;;;;;;;2.26;87.50;101107.19;5044102;28;20041;-91
2022/01/28 10:11:15;;;;;;;24.55;3.05;;;;;;;2.35;85.40;101132.91;5055489;28;20551;-91
2022/01/28 10:16:39;;;;;;;14.00;2.58;;;;;;;2.62;84.20;101115.13;5057464;28;20040;-90
2022/01/28 10:19:12;;;;;;;25.20;4.03;;;;;;;2.78;82.88;101115.63;4996760;28;20063;-89
2022/01/28 10:21:46;;;;;;;18.23;2.90;;;;;;;2.88;83.32;101133.53;4987685;28;20035;-91
2022/01/28 10:24:17;;;;;;;20.15;3.38;;;;;;;2.97;82.77;101132.50;4991904;28;20140;-90
2022/01/28 10:27:11;;;;;;;17.73;3.33;;;;;;;3.11;79.57;101121.81;4996753;28;20038;-88
2022/01/28 10:33:34;;;;;;;23.08;3.80;;;;;;;3.31;79.20;101142.97;4998799;28;20049;-89
2022/01/28 10:36:10;;;;;;;19.83;3.20;;;;;;;3.43;78.21;101159.13;4959175;28;20102;-90
2022/01/28 10:39:07;;;;;;;23.48;3.88;;;;;;;3.51;79.36;101147.66;4972957;28;20042;-89
2022/01/28 10:42:09;;;;;;;22.92;3.25;;;;;;;3.54;78.55;101129.44;4976717;28;20034;-90
2022/01/28 10:44:54;;;;;;;34.17;4.10;;;;;;;3.56;76.52;101132.88;4981422;28;20051;-88
2022/01/28 10:47:33;;;;;;;25.58;3.80;;;;;;;3.76;77.09;101134.09;4976982;28;20098;-89
2022/01/28 10:50:38;;;;;;;;;;;;;;;;;;;;;
2022/01/28 10:53:33;;;;;;;;;;;;;;;;;;;;;
2022/01/28 10:56:16;;;;;;;25.02;3.80;;;;;;;3.91;74.59;101141.50;5015490;28;20057;-92
2022/01/28 10:59:05;;;;;;;24.58;4.40;;;;;;;3.99;74.11;101152.53;5043751;28;20029;-90
2022/01/28 11:02:01;;;;;;;19.17;3.40;;;;;;;4.11;74.16;101125.41;5049237;28;20063;-91
2022/01/28 11:07:43;;;;;;;19.95;3.08;;;;;;;4.19;72.72;101138.16;5016638;28;20152;-90
2022/01/28 11:10:15;;;;;;;33.65;4.25;;;;;;;4.22;73.25;101136.34;4989116;28;20042;-90
2022/01/28 11:12:55;;;;;;;14.13;2.45;;;;;;;4.29;73.74;101148.25;5015503;28;20449;-89
2022/01/28 11:15:26;;;;;;;30.15;4.10;;;;;;;4.26;71.11;101160.47;4989408;28;20116;-88
2022/01/28 11:17:57;;;;;;;22.38;3.70;;;;;;;4.26;71.28;101161.31;5035293;28;20038;-89
2022/01/28 11:20:30;;;;;;;21.65;3.97;;;;;;;4.38;71.32;101160.16;5033207;28;20095;-88
2022/01/28 11:23:08;;;;;;;30.95;3.45;;;;;;;4.46;70.42;101167.75;5067143;28;20033;-88
2022/01/28 11:26:19;;;;;;;34.33;3.85;;;;;;;4.46;70.59;101163.41;5062582;28;20040;-89
2022/01/28 11:28:56;;;;;;;28.25;4.07;;;;;;;4.36;71.20;101167.97;5040775;28;20487;-89
2022/01/28 11:31:43;;;;;;;20.88;3.03;;;;;;;4.36;70.74;101186.16;5056295;28;20099;-88
2022/01/28 11:34:31;;;;;;;24.55;3.70;;;;;;;4.31;70.91;101182.84;5058787;28;20032;-87
2022/01/28 11:37:05;;;;;;;24.58;3.75;;;;;;;4.35;71.42;101175.81;5045112;28;20028;-89
2022/01/28 11:39:55;;;;;;;18.88;3.45;;;;;;;4.41;70.37;101174.78;5045918;28;20034;-89
2022/01/28 11:43:09;;;;;;;21.95;4.22;;;;;;;4.49;69.05;101176.31;5045329;28;20508;-89
2022/01/28 11:45:52;;;;;;;16.42;3.38;;;;;;;4.65;69.50;101176.72;5018459;28;20055;-89
2022/01/28 11:48:56;;;;;;;19.05;2.97;;;;;;;4.69;69.31;101180.94;5024223;28;20042;-88
2022/01/28 11:51:26;;;;;;;21.05;3.13;;;;;;;4.60;68.79;101174.25;5053434;28;20045;-88
2022/01/28 11:54:13;;;;;;;28.52;4.35;;;;;;;4.56;68.61;101170.03;5045688;28;20033;-89
2022/01/28 11:57:01;;;;;;;22.33;3.67;;;;;;;4.55;69.18;101177.88;5020011;28;20095;-88
2022/01/28 11:59:35;;;;;;;15.63;3.05;;;;;;;4.54;68.21;101187.41;5063827;28;20434;-91
2022/01/28 12:02:12;;;;;;;22.63;2.88;;;;;;;4.60;67.95;101174.25;5035267;28;20041;-89
2022/01/28 12:04:52;;;;;;;22.08;4.50;;;;;;;4.60;67.57;101189.84;5021777;28;20043;-90
2022/01/28 12:07:22;;;;;;;26.88;5.00;;;;;;;4.68;68.19;101187.03;5046815;28;21619;-88
2022/01/28 12:10:09;;;;;;;16.25;3.03;;;;;;;4.73;67.18;101199.88;5057925;28;20025;-90
2022/01/28 12:12:55;;;;;;;21.52;3.17;;;;;;;4.70;67.17;101181.78;5030816;28;20472;-88
2022/01/28 12:15:27;;;;;;;27.55;3.67;;;;;;;4.74;67.34;101194.63;5054445;28;20047;-89
2022/01/28 12:18:43;;;;;;;22.92;3.30;;;;;;;4.75;66.56;101195.50;5068529;28;20055;-88
2022/01/28 12:21:25;;;;;;;;;;;;;;;;;;;;;
2022/01/28 12:24:23;;;;;;;19.20;3.20;;;;;;;4.78;65.62;101192.81;5031066;28;20093;-88
2022/01/28 12:27:17;;;;;;;18.13;2.10;;;;;;;4.86;65.95;101180.47;5070065;28;20033;-86
2022/01/28 12:29:52;;;;;;;17.80;2.75;;;;;;;4.87;65.35;101217.69;5058240;28;20037;-86
2022/01/28 12:32:38;;;;;;;25.20;3.28;;;;;;;4.90;66.19;101169.09;5054405;28;20037;-87
2022/01/28 12:35:24;;;;;;;16.02;2.33;;;;;;;5.03;66.36;101186.00;5064792;28;20052;-89
2022/01/28 12:38:01;;;;;;;26.20;3.10;;;;;;;5.07;66.40;101178.97;5057433;28;20047;-89
2022/01/28 12:40:52;;;;;;;24.02;4.03;;;;;;;5.19;66.38;101193.34;5047410;28;20033;-87
2022/01/28 12:46:16;;;;;;;21.10;3.20;;;;;;;5.27;65.50;101178.38;5050514;28;20112;-87
2022/01/28 12:48:59;;;;;;;21.38;3.53;;;;;;;5.26;64.46;101176.66;5058370;28;20023;-88
2022/01/28 12:51:44;;;;;;;28.42;3.95;;;;;;;5.33;64.90;101185.97;5056290;28;20053;-89
2022/01/28 12:54:32;;;;;;;13.40;3.15;;;;;;;5.36;64.19;101179.84;5042531;28;20127;-89
2022/01/28 12:57:14;;;;;;;17.92;2.95;;;;;;;5.23;64.77;101188.03;5041326;28;20045;-88
2022/01/28 12:59:53;;;;;;;21.50;3.75;;;;;;;5.23;65.13;101179.38;5051421;28;20029;-90
2022/01/28 13:02:23;;;;;;;27.08;3.88;;;;;;;5.33;64.26;101184.22;5035645;28;20065;-89
2022/01/28 13:10:32;;;;;;;18.80;2.95;;;;;;;5.42;64.10;101216.06;5046717;28;20068;-89
2022/01/28 13:13:15;;;;;;;22.73;3.03;;;;;;;5.42;64.64;101179.66;5015158;28;20060;-88
2022/01/28 13:15:41;;;;;;;28.13;3.85;;;;;;;5.47;63.77;101255.78;5055874;28;20118;-90
2022/01/28 13:18:23;;;;;;;15.98;2.90;;;;;;;5.50;63.75;101220.13;5044713;28;20036;-89
2022/01/28 13:20:51;;;;;;;22.48;3.15;;;;;;;5.53;64.81;101238.25;5046844;28;20044;-89
2022/01/28 13:23:25;;;;;;;27.35;4.47;;;;;;;5.53;64.52;101225.25;5041538;28;20094;-89
2022/01/28 13:26:24;;;;;;;26.00;3.55;;;;;;;5.59;64.32;101204.22;5059136;28;20025;-89
2022/01/28 13:29:03;;;;;;;;;;;;;;;5.51;63.51;101208.81;5056058;28;20040;-89
2022/01/28 13:31:42;;;;;;;24.98;3.78;;;;;;;5.65;64.08;101213.59;5039389;28;20309;-88
2022/01/28 13:34:10;;;;;;;23.08;4.10;;;;;;;5.71;63.48;101216.03;5060244;28;20025;-90
2022/01/28 13:37:07;;;;;;;25.73;2.97;;;;;;;5.71;63.26;101233.34;5059766;28;20090;-88
2022/01/28 13:39:43;;;;;;;30.80;3.72;;;;;;;5.63;63.44;101230.16;5045853;28;20041;-89
2022/01/28 13:42:16;;;;;;;31.27;4.18;;;;;;;5.68;63.79;101231.72;5059691;28;20087;-91
2022/01/28 13:44:51;;;;;;;18.67;2.70;;;;;;;5.74;63.42;101204.63;5058857;28;20044;-89
2022/01/28 13:47:22;;;;;;;21.30;3.17;;;;;;;5.80;62.28;101220.91;5059128;28;20120;-91
2022/01/28 13:49:58;;;;;;;24.50;4.22;;;;;;;5.93;61.84;101230.94;5062108;28;20064;-87
2022/01/28 13:52:41;;;;;;;23.85;3.20;;;;;;;5.86;61.40;101235.50;5065325;28;20033;-89
2022/01/28 13:55:38;;;;;;;26.52;4.32;;;;;;;5.91;61.81;101223.16;5064023;28;20067;-90
2022/01/28 13:58:05;;;;;;;24.20;3.28;;;;;;;6.11;61.56;101239.91;5063103;28;20044;-86
2022/01/28 14:00:49;;;;;;;19.88;2.95;;;;;;;5.90;62.27;101260.53;5069259;28;20082;-89
2022/01/28 14:03:36;;;;;;;18.63;3.45;;;;;;;5.71;62.05;101257.66;5064144;28;20062;-88
2022/01/28 14:06:03;;;;;;;17.77;3.25;;;;;;;5.76;62.20;101257.50;5018597;28;20037;-90
2022/01/28 14:08:44;;;;;;;30.52;3.80;;;;;;;5.70;62.43;101258.53;5048710;28;20036;-88
2022/01/28 14:11:24;;;;;;;22.70;3.75;;;;;;;5.64;62.53;101263.09;5056051;28;20037;-87
2022/01/28 14:14:24;;;;;;;20.80;3.97;;;;;;;5.52;63.15;101270.34;5049414;28;20032;-90
2022/01/28 14:17:08;;;;;;;22.35;3.53;;;;;;;5.56;63.56;101279.78;5044247;28;20040;-90
2022/01/28 14:19:36;;;;;;;28.08;3.97;;;;;;;5.57;63.19;101272.84;5050970;28;20052;-90
2022/01/28 14:22:08;;;;;;;20.27;3.60;;;;;;;5.49;63.64;101288.66;5057868;28;20156;-89
2022/01/28 14:24:53;;;;;;;12.48;2.63;;;;;;;5.44;64.04;101306.16;5057097;28;20132;-90
2022/01/28 14:30:55;;;;;;;19.65;2.83;;;;;;;5.36;63.86;101292.53;5055428;28;20051;-89
2022/01/28 14:33:11;;;;;;;28.52;4.20;;;;;;;5.33;63.95;101319.47;5029487;28;20515;-88
2022/01/28 14:35:42;;;;;;;12.50;2.13;;;;;;;5.28;63.97;101310.94;5048282;28;20064;-89
2022/01/28 14:38:20;;;;;;;16.95;2.67;;;;;;;5.30;64.46;101316.09;5058467;28;20045;-90
2022/01/28 14:40:49;;;;;;;18.50;3.08;;;;;;;5.29;64.25;101337.78;5056012;28;20033;-90
2022/01/28 14:43:14;;;;;;;;;;;;;;;5.24;64.02;101324.94;5046833;28;20489;-88
2022/01/28 14:45:45;;;;;;;21.15;3.83;;;;;;;5.27;64.29;101326.59;5035459;28;19909;-87
2022/01/28 14:48:20;;;;;;;24.13;3.75;;;;;;;5.30;64.37;101327.38;5035592;28;20127;-89
2022/01/28 14:50:48;;;;;;;21.27;3.22;;;;;;;5.30;64.70;101331.69;5043449;28;20107;-88
2022/01/28 14:53:14;;;;;;;25.33;3.85;;;;;;;5.32;64.98;101340.31;5035529;28;20052;-87
2022/01/28 14:55:42;;;;;;;21.45;3.58;;;;;;;5.30;64.75;101308.28;5036488;28;20156;-89
2022/01/28 14:58:17;;;;;;;22.98;4.03;;;;;;;5.30;64.67;101336.88;5027166;28;20110;-90
2022/01/28 15:00:43;;;;;;;26.13;3.60;;;;;;;5.30;65.16;101336.88;5037406;28;20029;-91
2022/01/28 15:06:06;;;;;;;17.17;2.92;;;;;;;5.17;65.47;101330.34;5033155;28;20033;-89
2022/01/28 15:08:40;;;;;;;26.90;4.63;;;;;;;5.12;65.78;101327.88;5047898;28;20036;-88
2022/01/28 15:11:13;;;;;;;30.75;3.88;;;;;;;5.07;65.63;101347.94;5055532;28;20140;-88
2022/01/28 15:13:44;;;;;;;18.45;3.03;;;;;;;5.00;65.82;101339.44;5050660;28;20102;-89